Time;durP1;ratioP1;P1;durP2;ratioP2;P2;SDS_P1;SDS_P2;PMS_P1;PMS_P2;Temp;Humidity;BMP_temperature;BMP_pressure;BME280_temperature;BME280_humidity;BME280_pressure;Samples;Min_cycle;Max_cycle;Signal;HPM_P1;HPM_P2
2022/10/06 00:01:06;;;;;;;3.33;1.60;;;12.70;99.90;;;;;;6310493;22;20420;-65
2022/10/06 00:03:34;;;;;;;4.27;1.60;;;12.60;1.00;;;;;;6310439;22;20523;-65
2022/10/06 00:06:01;;;;;;;3.80;1.70;;;12.60;99.90;;;;;;6309489;22;20515;-65
2022/10/06 00:08:30;;;;;;;4.10;2.17;;;12.50;99.90;;;;;;6309942;22;20481;-62
2022/10/06 00:10:59;;;;;;;4.70;1.70;;;12.60;1.00;;;;;;6310747;22;20389;-64
2022/10/06 00:13:28;;;;;;;3.27;1.57;;;12.50;99.90;;;;;;6310351;22;20398;-63
2022/10/06 00:15:55;;;;;;;3.03;1.83;;;12.50;1.00;;;;;;6309616;22;20749;-64
2022/10/06 00:18:22;;;;;;;5.87;2.13;;;12.50;23.60;;;;;;6309504;22;20444;-64
2022/10/06 00:20:55;;;;;;;4.93;1.50;;;12.50;99.90;;;;;;6310068;22;20697;-64
2022/10/06 00:23:26;;;;;;;2.57;1.57;;;12.50;99.90;;;;;;6310275;22;20452;-64
2022/10/06 00:25:53;;;;;;;4.03;1.87;;;12.60;1.00;;;;;;6309565;22;20466;-64
2022/10/06 00:28:25;;;;;;;6.77;1.93;;;12.60;99.90;;;;;;6310402;22;20420;-65
2022/10/06 00:30:54;;;;;;;6.77;2.00;;;12.50;99.90;;;;;;6309952;22;20456;-66
2022/10/06 00:33:22;;;;;;;3.83;2.00;;;12.50;1.00;;;;;;6310665;22;20420;-64
2022/10/06 00:35:57;;;;;;;3.17;1.87;;;12.60;1.00;;;;;;6310661;22;20712;-64
2022/10/06 00:38:24;;;;;;;3.40;2.10;;;12.60;99.90;;;;;;6309087;22;20418;-65
2022/10/06 00:40:52;;;;;;;3.70;2.57;;;12.60;1.00;;;;;;6309099;22;20426;-64
2022/10/06 00:43:46;;;;;;;5.73;1.90;;;12.50;1.00;;;;;;6310069;22;20424;-64
2022/10/06 00:46:18;;;;;;;3.20;1.50;;;12.60;1.00;;;;;;6310090;22;20845;-64
2022/10/06 00:48:51;;;;;;;4.33;2.07;;;12.50;1.00;;;;;;6309563;22;20419;-64
2022/10/06 00:51:22;;;;;;;6.10;1.77;;;12.60;1.00;;;;;;6310488;22;20395;-64
2022/10/06 00:53:50;;;;;;;6.17;2.40;;;12.50;1.00;;;;;;6309990;22;20423;-64
2022/10/06 00:56:17;;;;;;;5.63;1.90;;;12.50;1.00;;;;;;6309710;22;20426;-64
2022/10/06 00:58:46;;;;;;;3.30;1.70;;;12.60;1.00;;;;;;6309823;22;20540;-64
2022/10/06 01:01:16;;;;;;;3.97;2.13;;;12.50;1.00;;;;;;6309668;22;20416;-64
2022/10/06 01:03:48;;;;;;;5.13;2.00;;;12.50;99.90;;;;;;6310296;22;20401;-64
2022/10/06 01:06:16;;;;;;;4.57;2.07;;;12.50;99.90;;;;;;6309452;22;20391;-64
2022/10/06 01:08:43;;;;;;;2.80;1.80;;;12.40;99.90;;;;;;6309390;22;20738;-64
2022/10/06 01:11:14;;;;;;;4.17;2.33;;;12.40;1.00;;;;;;6309358;22;20737;-64
2022/10/06 01:13:44;;;;;;;4.87;2.20;;;12.40;1.00;;;;;;6309747;22;20507;-64
2022/10/06 01:16:45;;;;;;;4.80;1.93;;;12.30;1.00;;;;;;6309676;22;20423;-64
2022/10/06 01:19:20;;;;;;;3.50;2.27;;;12.30;99.90;;;;;;6309719;22;20450;-64
2022/10/06 01:21:51;;;;;;;4.73;2.50;;;12.30;99.90;;;;;;6309569;22;20416;-64
2022/10/06 01:24:20;;;;;;;3.47;2.27;;;12.30;1.00;;;;;;6309231;22;20423;-63
2022/10/06 01:26:50;;;;;;;4.97;2.57;;;12.30;99.90;;;;;;6309594;22;20444;-64
2022/10/06 01:29:18;;;;;;;6.23;2.40;;;12.20;99.90;;;;;;6309845;22;20412;-64
2022/10/06 01:31:46;;;;;;;6.33;2.37;;;12.20;64.40;;;;;;6309333;22;20422;-63
2022/10/06 01:34:13;;;;;;;7.33;3.23;;;12.20;1.00;;;;;;6309381;22;20813;-63
2022/10/06 01:36:41;;;;;;;6.33;2.47;;;12.20;34.40;;;;;;6310024;22;20448;-63
2022/10/06 01:39:09;;;;;;;3.53;2.27;;;12.10;90.00;;;;;;6308872;22;20426;-64
2022/10/06 01:41:37;;;;;;;6.13;2.10;;;12.10;1.00;;;;;;6309018;22;20805;-63
2022/10/06 01:44:04;;;;;;;4.60;2.50;;;12.10;77.00;;;;;;6308911;22;20434;-63
2022/10/06 01:46:34;;;;;;;3.50;2.20;;;12.10;99.90;;;;;;6309462;22;20416;-64
2022/10/06 01:49:01;;;;;;;5.77;2.20;;;12.10;1.00;;;;;;6309266;22;20416;-64
2022/10/06 01:51:29;;;;;;;3.10;2.40;;;12.10;1.00;;;;;;6309128;22;20435;-63
2022/10/06 01:53:56;;;;;;;3.77;2.20;;;12.10;1.00;;;;;;6309566;22;20416;-64
2022/10/06 01:56:28;;;;;;;3.63;2.47;;;12.00;1.00;;;;;;6309030;22;20408;-63
2022/10/06 01:58:56;;;;;;;5.73;3.37;;;12.10;1.00;;;;;;6309589;22;20494;-64
2022/10/06 02:01:23;;;;;;;6.37;2.50;;;12.10;99.90;;;;;;6309655;22;20448;-64
2022/10/06 02:03:51;;;;;;;4.10;2.47;;;12.10;34.20;;;;;;6309829;22;20778;-63
2022/10/06 02:06:18;;;;;;;4.57;2.20;;;12.10;99.90;;;;;;6309189;22;20416;-64
2022/10/06 02:09:06;;;;;;;5.07;2.43;;;12.10;99.90;;;;;;6309858;22;20412;-64
2022/10/06 02:11:34;;;;;;;3.53;2.33;;;12.00;99.90;;;;;;6309409;22;20735;-64
2022/10/06 02:14:04;;;;;;;3.90;2.20;;;12.00;99.90;;;;;;6309221;22;20453;-64
2022/10/06 02:16:31;;;;;;;3.93;2.97;;;12.00;99.90;;;;;;6309418;22;20499;-64
2022/10/06 02:19:00;;;;;;;4.90;2.43;;;11.90;99.90;;;;;;6309366;22;20893;-64
2022/10/06 02:21:28;;;;;;;4.77;2.80;;;11.90;99.90;;;;;;6308937;22;20759;-64
2022/10/06 02:23:55;;;;;;;8.63;3.03;;;12.00;99.90;;;;;;6308768;22;20807;-64
2022/10/06 02:26:23;;;;;;;7.30;2.43;;;12.00;99.90;;;;;;6308824;22;20534;-64
2022/10/06 02:28:50;;;;;;;5.57;2.90;;;12.00;99.90;;;;;;6308875;22;20418;-64
2022/10/06 02:31:19;;;;;;;5.00;2.60;;;12.00;99.90;;;;;;6310327;22;20426;-64
2022/10/06 02:33:46;;;;;;;7.57;2.60;;;12.00;99.90;;;;;;6311986;22;20415;-64
2022/10/06 02:36:15;;;;;;;8.20;3.00;;;12.00;99.90;;;;;;6311116;22;20512;-64
2022/10/06 02:38:42;;;;;;;5.27;2.30;;;11.90;99.90;;;;;;6310426;22;20492;-64
2022/10/06 02:41:13;;;;;;;5.97;2.77;;;11.90;99.90;;;;;;6310432;22;20518;-64
2022/10/06 02:43:40;;;;;;;10.03;2.90;;;11.90;99.90;;;;;;6311181;22;20426;-64
2022/10/06 02:46:12;;;;;;;5.67;2.50;;;11.90;99.90;;;;;;6309480;22;20412;-64
2022/10/06 02:48:40;;;;;;;6.80;2.80;;;11.90;99.90;;;;;;6310676;22;20718;-63
2022/10/06 02:51:10;;;;;;;4.47;2.27;;;11.90;1.00;;;;;;6311668;22;20420;-64
2022/10/06 02:53:38;;;;;;;7.03;2.80;;;11.90;1.00;;;;;;6311480;22;20519;-64
2022/10/06 02:56:07;;;;;;;7.43;2.93;;;11.90;1.00;;;;;;6311189;22;20833;-64
2022/10/06 02:58:35;;;;;;;7.33;2.90;;;11.80;99.90;;;;;;6309687;22;20416;-64
2022/10/06 03:01:03;;;;;;;7.40;2.90;;;11.90;99.90;;;;;;6311218;22;20397;-64
2022/10/06 03:03:30;;;;;;;4.03;2.37;;;12.00;1.00;;;;;;6309981;22;20723;-64
2022/10/06 03:06:04;;;;;;;9.87;3.20;;;12.00;1.00;;;;;;6311152;22;20434;-64
2022/10/06 03:08:32;;;;;;;7.37;3.40;;;11.90;1.00;;;;;;6309067;22;20923;-64
2022/10/06 03:11:01;;;;;;;13.83;2.60;;;11.90;1.00;;;;;;6309472;22;20809;-64
2022/10/06 03:13:29;;;;;;;7.67;3.30;;;12.00;96.50;;;;;;6310385;22;20855;-63
2022/10/06 03:15:56;;;;;;;10.63;3.63;;;12.00;99.90;;;;;;6310381;22;20394;-63
2022/10/06 03:18:24;;;;;;;7.00;3.60;;;12.10;99.90;;;;;;6310118;22;20523;-63
2022/10/06 03:20:53;;;;;;;5.10;3.57;;;12.20;99.90;;;;;;6309580;22;20420;-64
2022/10/06 03:23:21;;;;;;;7.07;3.53;;;12.20;99.90;;;;;;6310548;22;20387;-63
2022/10/06 03:25:58;;;;;;;8.50;3.73;;;12.30;99.90;;;;;;6311393;22;20437;-64
2022/10/06 03:28:26;;;;;;;8.77;3.47;;;12.20;99.90;;;;;;6310936;22;20455;-63
2022/10/06 03:30:53;;;;;;;7.50;3.30;;;12.20;99.90;;;;;;6310704;22;20416;-63
2022/10/06 03:33:21;;;;;;;10.80;3.60;;;12.20;99.90;;;;;;6311522;22;20412;-64
2022/10/06 03:35:48;;;;;;;9.87;3.70;;;12.10;99.90;;;;;;6310756;22;20387;-64
2022/10/06 03:38:15;;;;;;;4.77;3.03;;;12.00;99.90;;;;;;6310569;22;20862;-64
2022/10/06 03:40:44;;;;;;;5.60;2.63;;;12.00;99.90;;;;;;6309266;22;20448;-64
2022/10/06 03:43:11;;;;;;;10.50;3.20;;;12.00;99.90;;;;;;6309990;22;20417;-64
2022/10/06 03:45:38;;;;;;;10.90;3.60;;;12.00;99.90;;;;;;6310599;22;20451;-64
2022/10/06 03:48:09;;;;;;;7.43;3.17;;;12.00;99.90;;;;;;6310146;22;20399;-64
2022/10/06 03:50:36;;;;;;;9.00;2.97;;;12.00;99.90;;;;;;6309910;22;20442;-64
2022/10/06 03:53:05;;;;;;;10.80;2.60;;;12.00;99.90;;;;;;6310424;22;20510;-65
2022/10/06 03:55:32;;;;;;;6.70;3.03;;;12.00;99.90;;;;;;6310536;22;20422;-64
2022/10/06 03:58:02;;;;;;;8.07;3.10;;;12.00;99.90;;;;;;6310376;22;20797;-64
2022/10/06 04:00:31;;;;;;;11.43;3.23;;;12.00;99.90;;;;;;6310255;22;20515;-64
2022/10/06 04:02:58;;;;;;;6.87;2.90;;;12.00;99.90;;;;;;6310194;22;20949;-64
2022/10/06 04:05:26;;;;;;;5.03;3.10;;;12.00;99.90;;;;;;6309932;22;20516;-64
2022/10/06 04:07:53;;;;;;;6.30;2.67;;;11.90;99.90;;;;;;6310456;22;20421;-64
2022/10/06 04:10:21;;;;;;;9.93;3.87;;;11.90;99.90;;;;;;6310407;22;20387;-64
2022/10/06 04:12:48;;;;;;;7.20;3.57;;;11.90;99.90;;;;;;6309879;22;20420;-64
2022/10/06 04:15:17;;;;;;;7.33;2.93;;;11.90;99.90;;;;;;6309087;22;20422;-64
2022/10/06 04:17:44;;;;;;;8.37;3.00;;;11.90;99.90;;;;;;6310695;22;20489;-64
2022/10/06 04:20:11;;;;;;;9.10;3.37;;;11.90;99.90;;;;;;6310034;22;20546;-64
2022/10/06 04:22:38;;;;;;;10.63;3.80;;;11.90;82.20;;;;;;6309879;22;20535;-64
2022/10/06 04:25:07;;;;;;;5.03;3.03;;;11.80;5.80;;;;;;6310541;22;20704;-64
2022/10/06 04:27:34;;;;;;;9.17;3.13;;;11.80;1.00;;;;;;6309598;22;20448;-64
2022/10/06 04:30:01;;;;;;;7.97;3.27;;;11.80;1.00;;;;;;6310420;22;20565;-64
2022/10/06 04:32:30;;;;;;;8.07;2.93;;;11.70;99.90;;;;;;6309777;22;20574;-64
2022/10/06 04:34:57;;;;;;;5.70;3.40;;;11.70;99.90;;;;;;6309971;22;20467;-64
2022/10/06 04:37:24;;;;;;;8.03;3.80;;;11.60;1.00;;;;;;6310063;22;20456;-64
2022/10/06 04:39:51;;;;;;;7.70;3.33;;;11.60;1.00;;;;;;6309862;22;20546;-64
2022/10/06 04:42:20;;;;;;;8.63;3.30;;;11.60;99.90;;;;;;6310671;22;20846;-64
2022/10/06 04:44:48;;;;;;;12.27;3.70;;;11.50;1.00;;;;;;6308721;22;20519;-64
2022/10/06 04:47:15;;;;;;;9.67;3.77;;;11.50;1.00;;;;;;6309714;22;20854;-64
2022/10/06 04:49:44;;;;;;;7.53;3.40;;;11.50;99.90;;;;;;6309687;22;20472;-64
2022/10/06 04:52:11;;;;;;;10.83;4.13;;;11.50;1.00;;;;;;6309961;22;20427;-64
2022/10/06 04:54:38;;;;;;;11.77;4.73;;;11.40;1.00;;;;;;6309626;22;20426;-64
2022/10/06 04:57:06;;;;;;;8.63;3.63;;;11.40;1.00;;;;;;6309319;22;20412;-64
2022/10/06 05:02:19;;;;;;;5.63;2.87;;;11.30;99.90;;;;;;6309730;22;20487;-64
2022/10/06 05:04:48;;;;;;;7.07;3.00;;;11.30;99.90;;;;;;6308997;22;20398;-64
2022/10/06 05:07:15;;;;;;;7.67;3.20;;;11.20;99.90;;;;;;6310091;22;20489;-64
2022/10/06 05:09:45;;;;;;;6.80;3.83;;;11.20;99.90;;;;;;6309260;22;20728;-64
2022/10/06 05:12:12;;;;;;;12.20;3.87;;;11.20;73.60;;;;;;6310003;22;20838;-64
2022/10/06 05:14:45;;;;;;;11.63;3.87;;;11.10;99.90;;;;;;6309606;22;20495;-64
2022/10/06 05:17:12;;;;;;;13.10;3.70;;;11.10;99.90;;;;;;6309651;22;20527;-64
2022/10/06 05:19:39;;;;;;;7.53;3.67;;;11.10;1.00;;;;;;6309172;22;20900;-64
2022/10/06 05:22:08;;;;;;;7.83;3.00;;;11.10;99.90;;;;;;6309731;22;20519;-65
2022/10/06 05:24:35;;;;;;;12.83;3.80;;;11.10;99.90;;;;;;6308826;22;20724;-64
2022/10/06 05:27:02;;;;;;;18.33;3.60;;;11.10;1.00;;;;;;6309258;22;20418;-64
2022/10/06 05:29:32;;;;;;;11.30;3.30;;;11.10;99.90;;;;;;6309299;22;20724;-64
2022/10/06 05:31:59;;;;;;;6.63;3.10;;;11.00;1.00;;;;;;6309846;22;20850;-64
2022/10/06 05:34:26;;;;;;;12.93;4.87;;;11.10;99.90;;;;;;6309973;22;20912;-64
2022/10/06 05:36:54;;;;;;;11.13;3.00;;;11.00;58.00;;;;;;6308696;22;20493;-65
2022/10/06 05:39:25;;;;;;;9.50;3.40;;;11.00;1.00;;;;;;6309326;22;20542;-64
2022/10/06 05:41:52;;;;;;;9.27;3.50;;;11.00;1.00;;;;;;6309568;22;20724;-65
2022/10/06 05:44:20;;;;;;;14.13;3.33;;;10.90;99.90;;;;;;6309798;22;20420;-65
2022/10/06 05:46:49;;;;;;;14.07;3.30;;;10.90;99.10;;;;;;6309233;22;20409;-65
2022/10/06 05:49:16;;;;;;;16.73;3.37;;;10.80;1.00;;;;;;6309180;22;20515;-65
2022/10/06 05:51:43;;;;;;;11.03;3.30;;;10.80;99.90;;;;;;6309236;22;20834;-65
2022/10/06 05:54:13;;;;;;;13.60;4.00;;;10.80;99.90;;;;;;6309686;22;20426;-65
2022/10/06 05:56:49;;;;;;;11.20;3.40;;;10.70;99.90;;;;;;6309268;22;20849;-65
2022/10/06 05:59:16;;;;;;;16.33;3.73;;;10.70;99.90;;;;;;6309420;22;20832;-65
2022/10/06 06:01:44;;;;;;;13.13;3.73;;;10.70;99.90;;;;;;6309165;22;20503;-65
2022/10/06 06:04:13;;;;;;;7.23;3.30;;;10.70;99.90;;;;;;6309266;22;20519;-65
2022/10/06 06:06:42;;;;;;;7.00;3.33;;;10.70;99.90;;;;;;6310275;22;20423;-65
2022/10/06 06:09:13;;;;;;;8.93;3.33;;;10.70;99.90;;;;;;6311082;22;20424;-65
2022/10/06 06:11:45;;;;;;;11.30;3.70;;;10.70;99.90;;;;;;6311540;22;20416;-65
2022/10/06 06:14:18;;;;;;;7.33;2.50;;;10.70;76.40;;;;;;6310581;22;20665;-65
2022/10/06 06:16:48;;;;;;;6.10;3.30;;;10.70;92.60;;;;;;6311657;22;20476;-65
2022/10/06 06:19:18;;;;;;;18.83;4.47;;;10.70;13.00;;;;;;6311754;22;20514;-64
2022/10/06 06:21:48;;;;;;;10.40;3.20;;;10.80;1.00;;;;;;6310518;22;20983;-65
2022/10/06 06:24:15;;;;;;;9.27;3.77;;;10.80;1.00;;;;;;6311011;22;20518;-65
2022/10/06 06:26:44;;;;;;;9.83;3.17;;;10.80;1.00;;;;;;6311051;22;20418;-65
2022/10/06 06:29:13;;;;;;;8.40;3.70;;;10.80;1.00;;;;;;6310916;22;20387;-65
2022/10/06 06:31:42;;;;;;;10.60;4.90;;;10.80;1.00;;;;;;6311201;22;20506;-65
2022/10/06 06:34:13;;;;;;;10.23;3.47;;;10.90;1.00;;;;;;6311602;22;20390;-65
2022/10/06 06:36:42;;;;;;;11.83;3.57;;;10.90;99.90;;;;;;6310833;22;20408;-65
2022/10/06 06:39:11;;;;;;;16.63;4.00;;;10.90;99.90;;;;;;6311007;22;20750;-65
2022/10/06 06:41:40;;;;;;;12.80;3.33;;;10.90;99.90;;;;;;6310810;22;20454;-65
2022/10/06 06:44:10;;;;;;;6.53;3.40;;;10.90;99.90;;;;;;6311205;22;20895;-65
2022/10/06 06:46:42;;;;;;;13.90;3.90;;;10.90;99.90;;;;;;6311535;22;20485;-65
2022/10/06 06:49:10;;;;;;;13.77;3.57;;;11.00;99.90;;;;;;6310621;22;20417;-65
2022/10/06 06:51:40;;;;;;;8.70;3.60;;;11.00;99.90;;;;;;6310923;22;20456;-65
2022/10/06 06:54:09;;;;;;;18.10;5.40;;;11.10;99.90;;;;;;6311399;22;20416;-65
2022/10/06 06:56:39;;;;;;;9.80;4.13;;;11.30;99.90;;;;;;6311532;22;20398;-65
2022/10/06 06:59:09;;;;;;;10.77;3.90;;;11.40;99.90;;;;;;6310128;22;20386;-65
2022/10/06 07:01:37;;;;;;;7.40;3.23;;;11.50;59.30;;;;;;6310053;22;20517;-65
2022/10/06 07:04:05;;;;;;;11.53;4.00;;;11.70;1.00;;;;;;6310222;22;20519;-65
2022/10/06 07:06:33;;;;;;;11.30;4.20;;;11.90;1.00;;;;;;6310710;22;20398;-65
2022/10/06 07:09:00;;;;;;;11.83;3.87;;;11.90;1.00;;;;;;6309481;22;20421;-65
2022/10/06 07:11:34;;;;;;;13.40;4.17;;;12.00;1.00;;;;;;6310405;22;20416;-65
2022/10/06 07:14:07;;;;;;;11.33;3.53;;;12.00;1.00;;;;;;6311247;22;20391;-65
2022/10/06 07:25:11;;;;;;;12.97;4.00;;;12.50;1.00;;;;;;6310416;22;20900;-65
2022/10/06 07:27:41;;;;;;;6.83;3.07;;;12.70;1.00;;;;;;6310852;22;20436;-65
2022/10/06 07:30:16;;;;;;;10.97;3.60;;;12.80;1.00;;;;;;6310437;22;20387;-65
2022/10/06 07:32:49;;;;;;;13.13;4.80;;;12.80;1.00;;;;;;6310196;22;20415;-65
2022/10/06 07:35:19;;;;;;;14.53;5.20;;;13.10;1.00;;;;;;6310792;22;20778;-65
2022/10/06 07:37:46;;;;;;;12.67;4.43;;;13.20;1.00;;;;;;6310563;22;20780;-66
2022/10/06 07:40:18;;;;;;;12.40;4.10;;;13.30;99.90;;;;;;6310653;22;20542;-66
2022/10/06 07:42:50;;;;;;;11.03;4.13;;;13.30;99.90;;;;;;6310680;22;20456;-67
2022/10/06 07:48:05;;;;;;;11.73;5.00;;;13.30;99.90;;;;;;6304205;22;20479;-66
2022/10/06 07:50:33;;;;;;;16.03;4.30;;;13.50;99.90;;;;;;6310900;22;20420;-66
2022/10/06 07:53:03;;;;;;;9.07;3.60;;;13.40;99.90;;;;;;6309965;22;20412;-66
2022/10/06 07:55:31;;;;;;;16.57;4.00;;;13.30;99.90;;;;;;6310222;22;20419;-68
2022/10/06 07:57:59;;;;;;;10.27;4.03;;;13.30;99.90;;;;;;6310743;22;20416;-66
2022/10/06 08:00:26;;;;;;;17.00;4.30;;;13.50;99.90;;;;;;6310419;22;20444;-65
2022/10/06 08:02:54;;;;;;;17.47;6.10;;;13.70;99.90;;;;;;6309865;22;20416;-65
2022/10/06 08:05:26;;;;;;;14.87;4.37;;;13.70;99.90;;;;;;6310750;22;20812;-65
2022/10/06 08:07:53;;;;;;;9.60;4.07;;;13.90;99.90;;;;;;6309245;22;20444;-66
2022/10/06 08:10:23;;;;;;;16.40;4.40;;;13.80;99.90;;;;;;6310801;22;20848;-64
2022/10/06 08:12:53;;;;;;;20.37;4.43;;;14.00;99.90;;;;;;6310244;22;20413;-64
2022/10/06 08:15:22;;;;;;;11.90;4.20;;;14.20;99.90;;;;;;6309939;22;20416;-64
2022/10/06 08:17:52;;;;;;;13.20;4.00;;;14.10;99.90;;;;;;6310136;22;20419;-63
2022/10/06 08:20:20;;;;;;;10.00;4.00;;;14.40;99.90;;;;;;6309599;22;20444;-63
2022/10/06 08:22:49;;;;;;;14.50;4.70;;;14.80;99.90;;;;;;6309866;22;20408;-63
2022/10/06 08:25:17;;;;;;;11.77;4.37;;;15.10;99.90;;;;;;6309729;22;20416;-63
2022/10/06 08:27:47;;;;;;;10.97;4.30;;;14.90;99.90;;;;;;6309193;22;20455;-63
2022/10/06 08:30:14;;;;;;;12.70;5.20;;;15.20;99.90;;;;;;6309186;22;20420;-62
2022/10/06 08:32:46;;;;;;;10.80;4.03;;;15.00;99.90;;;;;;6309277;22;20423;-62
2022/10/06 08:35:13;;;;;;;11.23;4.73;;;15.10;99.90;;;;;;6310020;22;20416;-63
2022/10/06 08:37:41;;;;;;;18.07;4.33;;;15.30;99.90;;;;;;6309917;22;20391;-63
2022/10/06 08:40:13;;;;;;;9.27;3.70;;;15.20;99.90;;;;;;6309932;22;20424;-62
2022/10/06 08:42:43;;;;;;;10.90;4.13;;;15.30;99.90;;;;;;6310137;22;20448;-62
2022/10/06 08:45:14;;;;;;;13.50;5.00;;;15.60;99.90;;;;;;6309374;22;20510;-61
2022/10/06 08:47:51;;;;;;;13.30;4.03;;;16.00;99.90;;;;;;6310022;22;20511;-62
2022/10/06 08:50:24;;;;;;;12.30;4.10;;;16.30;99.90;;;;;;6310011;22;20427;-61
2022/10/06 08:53:01;;;;;;;14.57;3.93;;;16.70;99.90;;;;;;6309666;22;20844;-62
2022/10/06 08:55:38;;;;;;;14.70;4.90;;;16.80;99.90;;;;;;6309277;22;20495;-60
2022/10/06 08:58:18;;;;;;;11.80;4.20;;;16.70;99.90;;;;;;6310335;22;20420;-61
2022/10/06 09:00:45;;;;;;;11.03;3.93;;;17.00;99.90;;;;;;6309056;22;20502;-62
2022/10/06 09:03:22;;;;;;;10.20;3.77;;;17.20;99.90;;;;;;6308991;22;20519;-61
2022/10/06 09:05:53;;;;;;;9.80;3.60;;;17.20;99.90;;;;;;6308145;22;20416;-60
2022/10/06 09:08:34;;;;;;;11.30;3.70;;;17.20;99.90;;;;;;6309956;22;20842;-62
2022/10/06 09:11:20;;;;;;;14.10;4.30;;;17.10;99.90;;;;;;6307972;22;20712;-62
2022/10/06 09:13:54;;;;;;;10.80;4.03;;;17.30;99.90;;;;;;6309366;22;20444;-60
2022/10/06 09:16:28;;;;;;;12.60;3.63;;;17.40;99.90;;;;;;6308958;22;20415;-62
2022/10/06 09:19:04;;;;;;;11.97;3.57;;;17.80;99.90;;;;;;6308084;22;20770;-64
2022/10/06 09:21:37;;;;;;;15.30;4.43;;;17.90;99.90;;;;;;6309978;22;20447;-62
2022/10/06 09:24:10;;;;;;;13.13;4.20;;;17.60;99.90;;;;;;6309108;22;20920;-62
2022/10/06 09:26:44;;;;;;;7.63;4.23;;;17.90;99.90;;;;;;6307946;22;20466;-61
2022/10/06 09:29:14;;;;;;;12.87;4.33;;;18.30;99.90;;;;;;6309481;22;20421;-62
2022/10/06 09:31:43;;;;;;;8.87;3.60;;;18.50;99.90;;;;;;6309960;22;20842;-62
2022/10/06 09:34:21;;;;;;;14.57;3.83;;;18.70;99.90;;;;;;6310215;22;20470;-62
2022/10/06 09:37:02;;;;;;;10.97;4.40;;;18.40;99.90;;;;;;6309207;22;20515;-63
2022/10/06 09:39:36;;;;;;;12.03;4.20;;;17.30;99.90;;;;;;6309079;22;20416;-61
2022/10/06 09:42:13;;;;;;;11.27;3.50;;;17.20;99.90;;;;;;6307995;22;20448;-62
2022/10/06 09:44:54;;;;;;;14.00;3.90;;;17.50;99.90;;;;;;6309674;22;20510;-62
2022/10/06 09:47:39;;;;;;;13.73;4.40;;;18.20;99.90;;;;;;6308758;22;20419;-62
2022/10/06 09:50:19;;;;;;;10.90;3.80;;;18.80;99.90;;;;;;6309603;22;20416;-62
2022/10/06 09:53:06;;;;;;;8.53;3.10;;;19.10;99.90;;;;;;6309738;22;20844;-62
2022/10/06 09:55:40;;;;;;;9.53;3.53;;;19.30;99.90;;;;;;6309681;22;20499;-63
2022/10/06 09:58:21;;;;;;;10.70;4.30;;;18.90;99.90;;;;;;6309006;22;20415;-60
2022/10/06 10:00:52;;;;;;;10.40;3.93;;;19.40;99.90;;;;;;6308945;22;20481;-62
2022/10/06 10:03:26;;;;;;;6.57;3.43;;;19.90;99.90;;;;;;6308039;22;20446;-62
2022/10/06 10:05:55;;;;;;;10.93;4.60;;;20.30;99.90;;;;;;6309707;22;20415;-63
2022/10/06 10:08:24;;;;;;;8.53;4.10;;;20.40;99.90;;;;;;6307715;22;20420;-63
2022/10/06 10:12:23;;;;;;;8.77;3.47;;;20.60;99.90;;;;;;6309355;22;20740;-63
2022/10/06 10:14:00;;;;;;;8.00;3.37;;;20.60;99.90;;;;;;6309301;22;20473;-64
2022/10/06 10:16:33;;;;;;;12.17;3.80;;;20.90;99.90;;;;;;6309211;22;20401;-63
2022/10/06 10:19:04;;;;;;;6.93;3.67;;;21.10;99.90;;;;;;6308524;22;20395;-63
2022/10/06 10:21:33;;;;;;;8.00;3.53;;;21.10;99.90;;;;;;6307854;22;20444;-63
2022/10/06 10:24:17;;;;;;;8.50;3.53;;;20.90;99.90;;;;;;6307521;22;20422;-63
2022/10/06 10:26:49;;;;;;;7.30;3.70;;;20.90;99.90;;;;;;6307462;22;20765;-63
2022/10/06 10:29:44;;;;;;;9.53;3.60;;;20.70;99.90;;;;;;6307477;22;20791;-64
2022/10/06 10:32:20;;;;;;;9.53;3.77;;;20.40;99.90;;;;;;6303490;22;20490;-63
2022/10/06 10:35:06;;;;;;;8.17;3.43;;;20.30;99.90;;;;;;6309155;22;20712;-63
2022/10/06 10:37:45;;;;;;;8.83;3.17;;;20.50;99.90;;;;;;6308472;22;20419;-64
2022/10/06 10:40:38;;;;;;;12.87;3.77;;;20.80;99.90;;;;;;6307861;22;20841;-63
2022/10/06 10:43:13;;;;;;;7.70;3.20;;;20.80;99.90;;;;;;6295886;22;20889;-65
2022/10/06 10:45:49;;;;;;;9.77;3.87;;;21.10;99.90;;;;;;6309457;22;20672;-63
2022/10/06 10:48:22;;;;;;;7.33;3.40;;;21.20;99.90;;;;;;6308707;22;20450;-63
2022/10/06 10:50:57;;;;;;;7.07;3.03;;;21.30;99.90;;;;;;6308374;22;20411;-64
2022/10/06 10:53:32;;;;;;;7.87;3.80;;;21.40;99.90;;;;;;6309631;22;20411;-65
2022/10/06 10:56:00;;;;;;;6.20;3.30;;;21.10;99.90;;;;;;6309969;22;20412;-64
2022/10/06 10:58:34;;;;;;;10.33;3.33;;;20.90;99.90;;;;;;6308692;22;20444;-64
2022/10/06 11:01:24;;;;;;;4.90;2.90;;;20.90;99.90;;;;;;6308222;22;20764;-64
2022/10/06 11:03:56;;;;;;;10.80;3.80;;;21.00;99.90;;;;;;6307532;22;20731;-64
2022/10/06 11:06:53;;;;;;;8.10;3.63;;;20.80;99.90;;;;;;6307165;22;20473;-64
2022/10/06 11:09:25;;;;;;;10.03;3.37;;;20.70;99.90;;;;;;6307560;22;20490;-64
2022/10/06 11:12:10;;;;;;;5.90;3.40;;;20.70;99.90;;;;;;6308705;22;20412;-64
2022/10/06 11:14:53;;;;;;;8.63;3.20;;;20.80;99.90;;;;;;6309851;22;20841;-65
2022/10/06 11:17:42;;;;;;;6.43;3.17;;;20.60;99.90;;;;;;6310653;22;20814;-64
2022/10/06 11:20:28;;;;;;;10.40;3.60;;;20.80;99.90;;;;;;6310875;22;20712;-66
2022/10/06 11:23:02;;;;;;;6.13;3.13;;;20.80;99.90;;;;;;6310239;22;20448;-64
2022/10/06 11:25:38;;;;;;;6.43;2.97;;;20.70;99.90;;;;;;6310236;22;20383;-65
2022/10/06 11:28:15;;;;;;;10.13;3.70;;;20.70;99.90;;;;;;6311026;22;20420;-67
2022/10/06 11:30:58;;;;;;;6.27;3.30;;;20.40;99.90;;;;;;6310966;22;20474;-64
2022/10/06 11:33:33;;;;;;;7.30;3.47;;;19.70;99.90;;;;;;6310490;22;20423;-65
2022/10/06 11:36:03;;;;;;;5.17;2.87;;;19.80;99.90;;;;;;6309757;22;20425;-66
2022/10/06 11:38:39;;;;;;;6.20;2.90;;;20.40;99.90;;;;;;6311127;22;20777;-64
2022/10/06 11:41:20;;;;;;;7.50;3.30;;;20.50;99.90;;;;;;6310308;22;20419;-64
2022/10/06 11:43:59;;;;;;;11.23;3.70;;;19.50;99.90;;;;;;6310298;22;20420;-65
2022/10/06 11:46:35;;;;;;;9.87;3.00;;;19.00;99.90;;;;;;6310873;22;20745;-64
2022/10/06 11:49:47;;;;;;;6.80;3.10;;;19.40;99.90;;;;;;6310601;22;20780;-64
2022/10/06 11:52:54;;;;;;;6.50;2.50;;;19.60;99.90;;;;;;6310586;22;20412;-64
2022/10/06 11:55:25;;;;;;;9.53;2.80;;;20.40;99.90;;;;;;6309692;22;20427;-65
2022/10/06 11:58:15;;;;;;;6.73;2.83;;;21.00;99.90;;;;;;6310325;22;20471;-66
2022/10/06 12:00:48;;;;;;;10.80;3.83;;;20.60;99.90;;;;;;6310597;22;20390;-64
2022/10/06 12:03:50;;;;;;;5.70;3.70;;;21.00;99.90;;;;;;6308954;22;20490;-65
2022/10/06 12:06:56;;;;;;;5.33;3.13;;;20.80;99.90;;;;;;6310317;22;20747;-64
2022/10/06 12:10:13;;;;;;;6.73;3.17;;;21.20;99.90;;;;;;6306858;22;20423;-65
2022/10/06 12:12:58;;;;;;;4.30;2.20;;;21.50;99.90;;;;;;6215060;23;20935;-65
2022/10/06 12:15:49;;;;;;;6.83;3.13;;;21.40;99.90;;;;;;6309643;22;20420;-65
2022/10/06 12:18:42;;;;;;;7.20;3.20;;;21.00;99.90;;;;;;6310842;22;20872;-65
2022/10/06 12:21:22;;;;;;;5.53;3.57;;;21.10;99.90;;;;;;6307770;22;20714;-64
2022/10/06 12:24:02;;;;;;;4.33;2.23;;;20.90;99.90;;;;;;6308655;22;20690;-65
2022/10/06 12:26:48;;;;;;;7.60;2.87;;;21.00;99.90;;;;;;6308545;22;20471;-66
2022/10/06 12:29:33;;;;;;;7.37;2.70;;;20.30;99.90;;;;;;6309242;22;20420;-65
2022/10/06 12:32:20;;;;;;;5.00;2.93;;;20.50;99.90;;;;;;6309723;22;20412;-65
2022/10/06 12:35:12;;;;;;;5.93;2.83;;;20.80;99.90;;;;;;6308799;22;20412;-65
2022/10/06 12:37:51;;;;;;;6.50;2.70;;;20.80;99.90;;;;;;6308734;22;20418;-66
2022/10/06 12:40:46;;;;;;;6.40;2.73;;;20.70;99.90;;;;;;6308002;22;20415;-65
2022/10/06 12:43:34;;;;;;;5.30;2.70;;;20.90;99.90;;;;;;6308387;22;20448;-66
2022/10/06 12:46:06;;;;;;;6.20;2.50;;;21.00;99.90;;;;;;6309422;22;20522;-66
2022/10/06 12:48:46;;;;;;;10.47;4.33;;;21.30;99.90;;;;;;6307575;22;20428;-66
2022/10/06 12:51:29;;;;;;;6.80;2.87;;;21.30;99.90;;;;;;6307572;22;20422;-67
2022/10/06 12:54:07;;;;;;;6.67;2.73;;;20.90;99.90;;;;;;6308804;22;20428;-64
2022/10/06 12:56:38;;;;;;;3.87;2.90;;;20.80;99.90;;;;;;6308198;22;20420;-65
2022/10/06 12:59:19;;;;;;;4.40;2.50;;;20.60;99.90;;;;;;6307875;22;20427;-64
2022/10/06 13:01:49;;;;;;;5.10;2.90;;;20.90;99.90;;;;;;6308272;22;20451;-64
2022/10/06 13:04:40;;;;;;;4.57;2.37;;;21.20;99.90;;;;;;6309139;22;20416;-64
2022/10/06 13:07:15;;;;;;;6.20;2.70;;;20.90;99.90;;;;;;6309452;22;20864;-64
2022/10/06 13:09:43;;;;;;;3.30;2.23;;;21.10;99.90;;;;;;6307217;22;20426;-63
2022/10/06 13:12:27;;;;;;;5.40;3.00;;;21.40;99.90;;;;;;6308029;22;20833;-64
2022/10/06 13:15:21;;;;;;;5.40;2.63;;;21.20;99.90;;;;;;6307721;22;20535;-64
2022/10/06 13:17:53;;;;;;;9.47;3.53;;;21.40;99.90;;;;;;6308659;22;20429;-64
2022/10/06 13:20:35;;;;;;;8.43;3.13;;;21.20;99.90;;;;;;6309073;22;20420;-64
2022/10/06 13:23:06;;;;;;;4.93;2.60;;;21.40;99.90;;;;;;6307706;22;20418;-63
2022/10/06 13:25:41;;;;;;;8.07;3.17;;;21.30;99.90;;;;;;6308406;22;20415;-64
2022/10/06 13:28:44;;;;;;;5.40;3.20;;;21.00;99.90;;;;;;6308944;22;20412;-64